This is the latest recevied weather packets stored in our database for station/object EA3FHP. If no packets are shown the sender has not sent any weather packets the latest 10 day(s).
| Time | Temp. | Humidity | Pressure | Rain* | Wind** | Luminosity | Snow |
|---|---|---|---|---|---|---|---|
| 1787581203 | 28.89° C | 57% | 1013.4 hPa | 0 mm | - | - | - |
| 1787580603 | 29.44° C | 54% | 1013.8 hPa | 0 mm | - | - | - |
| 1787580004 | 29.44° C | 51% | 1014 hPa | 0 mm | - | - | - |
| 1787579403 | 30.56° C | 50% | 1013.8 hPa | 0 mm | - | - | - |
| 1787578803 | 30° C | 52% | 1013.9 hPa | 0 mm | - | - | - |
| 1787578203 | 30.56° C | 50% | 1013.9 hPa | 0 mm | - | - | - |
| 1787577603 | 31.67° C | 46% | 1013.8 hPa | 0 mm | - | - | - |
| 1787577003 | 31.11° C | 48% | 1014.2 hPa | 0 mm | - | - | - |
| 1787576403 | 31.11° C | 49% | 1014.6 hPa | 0 mm | - | - | - |
| 1787575803 | 31.11° C | 49% | 1015 hPa | 0 mm | - | - | - |
| 1787575203 | 30° C | 51% | 1015.1 hPa | 0 mm | - | - | - |
| 1787574603 | 31.11° C | 48% | 1015.3 hPa | 0 mm | - | - | - |
| 1787574003 | 29.44° C | 51% | 1015.5 hPa | 0 mm | - | - | - |
| 1787573403 | 29.44° C | 51% | 1015.4 hPa | 0 mm | - | - | - |
| 1787572803 | 28.89° C | 52% | 1015.6 hPa | 0 mm | - | - | - |
| 1787572203 | 28.89° C | 52% | 1015.6 hPa | 0 mm | - | - | - |
| 1787571603 | 29.44° C | 53% | 1015.6 hPa | 0 mm | - | - | - |
| 1787571003 | 29.44° C | 53% | 1015.7 hPa | 0 mm | - | - | - |
| 1787570403 | 30° C | 53% | 1015.8 hPa | 0 mm | - | - | - |
| 1787569804 | 30.56° C | 50% | 1015.9 hPa | 0 mm | - | - | - |
| 1787569205 | 30° C | 53% | 1016 hPa | 0 mm | - | - | - |
| 1787568603 | 30° C | 54% | 1016 hPa | 0 mm | - | - | - |
| 1787568003 | 29.44° C | 55% | 1016.1 hPa | 0 mm | - | - | - |
| 1787567403 | 29.44° C | 55% | 1016.3 hPa | 0 mm | - | - | - |
| 1787566804 | 27.78° C | 58% | 1016.9 hPa | 0 mm | - | - | - |
* Rain latest hour (hover to see other rain measurements)
** Current wind speed in m/s (hover to see current wind gust speed)